createdAt,value
2017-08-01T00:04:33.225Z,98.9
2017-08-01T00:14:47.289Z,98.1
2017-08-01T00:25:01.487Z,96.7
2017-08-01T00:35:17.157Z,93.6
2017-08-01T00:45:32.206Z,93.5
2017-08-01T00:55:47.877Z,92.3
2017-08-01T01:06:03.629Z,90.9
2017-08-01T01:16:19.158Z,90
2017-08-01T01:26:33.439Z,91.3
2017-08-01T01:36:47.486Z,92.9
2017-08-01T01:47:02.765Z,93
2017-08-01T01:57:18.188Z,94.3
2017-08-01T02:07:32.478Z,95.1
2017-08-01T02:17:46.991Z,97.1
2017-08-01T02:28:01.445Z,97.4
2017-08-01T02:38:15.549Z,98.5
2017-08-01T02:48:30.052Z,100
2017-08-01T02:58:44.526Z,100
2017-08-01T03:08:58.917Z,100
2017-08-01T03:19:13.680Z,100
2017-08-01T03:29:28.175Z,100
2017-08-01T03:39:41.994Z,100
2017-08-01T03:49:56.395Z,100
2017-08-01T04:00:11.720Z,100
2017-08-01T04:10:27.151Z,100
2017-08-01T04:20:41.235Z,100
2017-08-01T04:30:55.650Z,100
2017-08-01T04:41:10.852Z,100
2017-08-01T04:51:26.056Z,100
2017-08-01T05:01:40.031Z,100
2017-08-01T05:11:55.030Z,100
2017-08-01T05:22:10.401Z,100
2017-08-01T05:32:25.226Z,100
2017-08-01T05:42:40.335Z,100
2017-08-01T05:52:54.494Z,100
2017-08-01T06:03:08.542Z,100
2017-08-01T06:13:23.398Z,100
2017-08-01T06:23:38.415Z,100
2017-08-01T06:33:53.557Z,98.4
2017-08-01T06:44:07.555Z,91.9
2017-08-01T06:54:23.409Z,92.2
2017-08-01T07:04:37.530Z,93.1
2017-08-01T07:14:52.645Z,90.7
2017-08-01T07:25:06.573Z,89.6
2017-08-01T07:35:22.000Z,87.9
2017-08-01T07:45:36.950Z,87.3
2017-08-01T07:55:51.961Z,86.9
2017-08-01T08:06:06.376Z,85
2017-08-01T08:16:21.664Z,85.3
2017-08-01T08:26:37.026Z,86
2017-08-01T08:36:52.707Z,85.4
2017-08-01T08:47:07.888Z,84.7
2017-08-01T08:57:23.103Z,84.6
2017-08-01T09:07:38.808Z,84.3
2017-08-01T09:17:53.958Z,84.7
2017-08-01T09:28:08.519Z,83.4
2017-08-01T09:38:23.007Z,84.5
2017-08-01T09:48:37.399Z,84.6
2017-08-01T09:58:52.441Z,84.7
2017-08-01T10:09:07.408Z,85.9
2017-08-01T10:19:21.672Z,87
2017-08-01T10:29:37.543Z,87.3
2017-08-01T10:39:51.744Z,83.2
2017-08-01T10:50:05.974Z,79.9
2017-08-01T11:00:21.551Z,79.4
2017-08-01T11:10:37.112Z,79.6
2017-08-01T11:20:52.474Z,79.4
2017-08-01T11:31:07.737Z,78.6
2017-08-01T11:41:23.352Z,79.7
2017-08-01T11:51:38.877Z,81.9
2017-08-01T12:01:54.234Z,82.3
2017-08-01T12:12:08.316Z,82.8
2017-08-01T12:22:22.893Z,84.6
2017-08-01T12:32:38.554Z,84.9
2017-08-01T12:42:53.937Z,84.8
2017-08-01T12:53:09.804Z,85
2017-08-01T13:03:25.209Z,86
2017-08-01T13:13:40.384Z,87.2
2017-08-01T13:23:56.161Z,88.5
2017-08-01T13:34:11.980Z,89.5
2017-08-01T13:44:26.375Z,89.1
2017-08-01T13:54:40.289Z,92.9
2017-08-01T14:04:55.970Z,93.8
2017-08-01T14:15:10.122Z,93.4
2017-08-01T14:25:24.072Z,94.5
2017-08-01T14:35:38.465Z,94.8
2017-08-01T14:45:53.751Z,94.6
2017-08-01T14:56:08.665Z,92.5
2017-08-01T15:06:22.754Z,91.2
2017-08-01T15:16:37.270Z,90.6
2017-08-01T15:26:52.094Z,92
2017-08-01T15:37:06.170Z,92.5
2017-08-01T15:47:20.470Z,91.8
2017-08-01T15:57:34.378Z,91.6
2017-08-01T16:07:49.439Z,90.6
2017-08-01T16:18:03.988Z,91.1
2017-08-01T16:28:18.067Z,91.9
2017-08-01T16:38:33.493Z,94.7
2017-08-01T16:48:48.670Z,98.1
2017-08-01T16:59:04.254Z,100
2017-08-01T17:09:19.371Z,100
2017-08-01T17:19:34.314Z,100
2017-08-01T17:29:48.883Z,100
2017-08-01T17:40:03.483Z,100
2017-08-01T17:50:18.335Z,100
2017-08-01T18:00:34.102Z,100
2017-08-01T18:10:49.663Z,100
2017-08-01T18:21:04.686Z,100
2017-08-01T18:31:19.344Z,100
2017-08-01T18:41:34.377Z,100
2017-08-01T18:51:49.553Z,100
2017-08-01T19:02:03.696Z,100
2017-08-01T19:12:18.489Z,100
2017-08-01T19:22:33.281Z,100
2017-08-01T19:32:47.155Z,100
2017-08-01T19:43:01.370Z,100
2017-08-01T19:53:15.330Z,100
2017-08-01T20:03:30.399Z,100
2017-08-01T20:13:44.509Z,100
2017-08-01T20:23:59.117Z,100
2017-08-01T20:34:13.682Z,100
2017-08-01T20:44:28.792Z,100
2017-08-01T20:54:43.561Z,100
2017-08-01T21:04:58.603Z,100
2017-08-01T21:15:12.556Z,100
2017-08-01T21:25:26.897Z,100
2017-08-01T21:35:41.815Z,100
2017-08-01T21:45:57.334Z,100
2017-08-01T21:56:12.977Z,100
2017-08-01T22:06:27.775Z,100
2017-08-01T22:16:42.780Z,100
2017-08-01T22:26:58.119Z,100
2017-08-01T22:37:13.492Z,100
2017-08-01T22:47:28.091Z,100
2017-08-01T22:57:42.957Z,100
2017-08-01T23:07:58.189Z,100
2017-08-01T23:18:13.645Z,100
2017-08-01T23:28:28.206Z,100
2017-08-01T23:38:43.926Z,100
2017-08-01T23:48:57.983Z,100
2017-08-01T23:59:11.808Z,100
